aviador You're here:

CYGW Decoded Metar

KUUJJUARARAPIK in QC, CANADA
Report Time2018-01-22 11:41:00
UTC Time2018-01-22 12:04:14
Flight Rules mvfr MVFR
Wind160° at 04 kt
W.Decomp.*RWY 21: 3.4 kt HW 2.2 kt LCW
W.Rank160° ranks 23
Current wind is below 160° avg. (8.1)
Visibility9656 m
Phenomena:Haze
Clouds:Overcast 010 Hf
Expected CloudBase > 1,200 ft AGL from Temp-Dew spread
Ceiling1,000 ft
Temp-26°C (ISA -41)
Dew Point-29°C (76% RH)
AAT-31.3°C
QNH1033 hPa
Density Alt-5,968 ft
Elevation39 ft
Report Wrong Elevation
Raw Report
SPECI CYGW 221141Z AUTO 16004KT 6SM HZ OVC010 M26/M29 A3049 RMK SLP330=

Extra information for CYGW:More info

Metar Taf Metar & Taf Last 4 Metars F.Rules Stats Wind Profile Meteogram Temp Stats Airport Information Weather charts Add Link Nearby VenuesMetar ALERT Operation Metar Decoded Social comments